createdAt,value
2019-02-11T05:00:45.044Z,9.97
2019-02-11T05:03:14.244Z,7.97
2019-02-11T05:05:43.383Z,14.83
2019-02-11T05:08:12.441Z,8.00
2019-02-11T05:10:41.296Z,6.17
2019-02-11T05:13:10.073Z,7.77
2019-02-11T05:15:38.850Z,8.17
2019-02-11T05:18:07.697Z,7.67
2019-02-11T05:20:36.560Z,7.60
2019-02-11T05:23:05.674Z,9.30
2019-02-11T05:25:34.538Z,11.03
2019-02-11T05:28:03.653Z,6.53
2019-02-11T05:30:32.512Z,7.97
2019-02-11T05:33:01.667Z,8.67
2019-02-11T05:35:30.601Z,10.20
2019-02-11T05:37:59.721Z,9.77
2019-02-11T05:40:28.592Z,6.07
2019-02-11T05:42:57.712Z,7.57
2019-02-11T05:45:26.758Z,6.47
2019-02-11T05:47:55.531Z,7.10
2019-02-11T05:50:24.359Z,11.47
2019-02-11T05:52:53.781Z,7.73
2019-02-11T05:55:23.973Z,8.70
2019-02-11T05:57:52.860Z,9.43
2019-02-11T06:00:22.041Z,8.83
2019-02-11T06:02:50.883Z,8.63
2019-02-11T06:05:19.928Z,10.70
2019-02-11T06:07:48.948Z,10.30
2019-02-11T06:10:18.265Z,7.87
2019-02-11T06:12:47.132Z,7.47
2019-02-11T06:15:16.348Z,9.03
2019-02-11T06:17:45.184Z,8.03
2019-02-11T06:20:14.054Z,9.83
2019-02-11T06:22:43.190Z,7.13
2019-02-11T06:25:12.467Z,7.87
2019-02-11T06:27:41.957Z,8.17
2019-02-11T06:30:11.476Z,6.73
2019-02-11T06:32:40.532Z,11.50
2019-02-11T06:35:09.884Z,7.27
2019-02-11T06:37:38.928Z,11.30
2019-02-11T06:40:09.016Z,10.10
2019-02-11T06:42:40.839Z,6.33
2019-02-11T06:45:13.060Z,9.83
2019-02-11T06:47:40.316Z,7.60
2019-02-11T06:50:10.000Z,8.17
2019-02-11T06:52:39.018Z,9.57
2019-02-11T06:55:09.156Z,7.57
2019-02-11T06:57:38.976Z,6.93
2019-02-11T07:00:10.386Z,12.40
2019-02-11T07:02:39.321Z,11.00
2019-02-11T07:05:08.320Z,6.83
2019-02-11T07:07:37.122Z,12.37
2019-02-11T07:10:06.937Z,6.40
2019-02-11T07:12:36.110Z,8.77
2019-02-11T07:15:06.050Z,8.47
2019-02-11T07:17:34.936Z,8.90
2019-02-11T07:20:04.178Z,6.93
2019-02-11T07:22:33.576Z,11.10
2019-02-11T07:25:02.365Z,6.37
2019-02-11T07:27:31.672Z,6.97
2019-02-11T07:30:00.948Z,6.30
2019-02-11T07:32:30.013Z,10.53
2019-02-11T07:34:59.336Z,6.37
2019-02-11T07:37:28.224Z,8.40
2019-02-11T07:39:56.993Z,8.23
2019-02-11T07:42:34.192Z,8.43
2019-02-11T07:45:07.964Z,7.77
2019-02-11T07:47:36.768Z,9.37
2019-02-11T07:50:05.972Z,9.67
2019-02-11T07:52:34.766Z,8.70
2019-02-11T07:55:03.691Z,6.33
2019-02-11T07:57:32.880Z,13.77
2019-02-11T08:00:02.007Z,9.33
2019-02-11T08:02:30.847Z,12.30
2019-02-11T08:05:00.012Z,13.17
2019-02-11T08:07:28.876Z,6.70
2019-02-11T08:09:57.679Z,8.43
2019-02-11T08:12:26.476Z,11.30
2019-02-11T08:14:55.256Z,9.00
2019-02-11T08:17:24.119Z,11.30
2019-02-11T08:19:53.321Z,6.60
2019-02-11T08:22:22.112Z,6.63
2019-02-11T08:24:51.287Z,7.60
2019-02-11T08:27:20.065Z,8.77
2019-02-11T08:29:49.169Z,6.13
2019-02-11T08:32:17.961Z,6.63
2019-02-11T08:34:46.732Z,9.43
2019-02-11T08:37:15.598Z,7.33
2019-02-11T08:39:44.378Z,10.27
2019-02-11T08:42:13.170Z,8.33
2019-02-11T08:44:42.304Z,8.93
2019-02-11T08:47:11.406Z,6.40
2019-02-11T08:49:40.239Z,9.23
2019-02-11T08:52:09.380Z,9.03
2019-02-11T08:54:38.685Z,7.17
2019-02-11T08:57:07.729Z,7.80
2019-02-11T08:59:37.093Z,5.33
2019-02-11T09:02:06.234Z,8.83
2019-02-11T09:04:35.992Z,9.23
2019-02-11T09:07:05.088Z,6.30
2019-02-11T09:09:33.928Z,7.80
2019-02-11T09:12:03.171Z,6.57
2019-02-11T09:14:32.488Z,5.53
2019-02-11T09:17:09.853Z,8.07
2019-02-11T09:19:32.498Z,9.87
2019-02-11T09:22:07.368Z,5.47
2019-02-11T09:24:31.888Z,11.27
2019-02-11T09:27:00.812Z,7.47
2019-02-11T09:29:29.767Z,6.10
2019-02-11T09:31:58.708Z,6.60
2019-02-11T09:34:27.588Z,5.67
2019-02-11T09:36:56.443Z,8.43
2019-02-11T09:39:25.768Z,9.07
2019-02-11T09:41:54.629Z,12.60
2019-02-11T09:44:29.506Z,6.40
2019-02-11T09:46:55.235Z,11.87
2019-02-11T09:49:24.264Z,9.23
2019-02-11T09:51:53.413Z,6.43
2019-02-11T09:54:22.591Z,7.83
2019-02-11T09:56:51.457Z,8.57
2019-02-11T09:59:20.235Z,6.27
2019-02-11T10:01:49.029Z,11.03
2019-02-11T10:04:17.892Z,7.43
2019-02-11T10:06:47.068Z,9.90
2019-02-11T10:09:15.912Z,7.27
2019-02-11T10:11:44.778Z,4.77
2019-02-11T10:14:13.689Z,6.33
2019-02-11T10:16:42.800Z,5.30
2019-02-11T10:19:11.647Z,7.87
2019-02-11T10:21:40.440Z,6.10
2019-02-11T10:24:09.237Z,3.67
2019-02-11T10:26:38.015Z,6.00
2019-02-11T10:29:07.149Z,5.87
2019-02-11T10:31:35.940Z,4.80
2019-02-11T10:34:04.780Z,8.33
2019-02-11T10:36:33.653Z,5.63
2019-02-11T10:39:02.700Z,5.57
2019-02-11T10:41:31.476Z,6.43
2019-02-11T10:44:00.793Z,7.13
2019-02-11T10:46:29.952Z,6.50
2019-02-11T10:48:59.197Z,4.63
2019-02-11T10:51:28.063Z,6.70
2019-02-11T10:53:57.003Z,6.13
2019-02-11T10:56:25.819Z,7.50
2019-02-11T10:58:55.200Z,5.40
2019-02-11T11:01:24.080Z,3.87
2019-02-11T11:03:52.931Z,5.53
2019-02-11T11:06:22.237Z,2.57
2019-02-11T11:08:51.016Z,4.60
2019-02-11T11:11:19.932Z,6.37
2019-02-11T11:13:48.801Z,4.90
2019-02-11T11:16:18.099Z,7.20
2019-02-11T11:18:46.956Z,6.80
2019-02-11T11:21:15.892Z,4.80
2019-02-11T11:23:44.996Z,5.73
2019-02-11T11:26:14.250Z,6.17
2019-02-11T11:28:43.323Z,6.33
2019-02-11T11:31:12.850Z,3.87
2019-02-11T11:33:42.023Z,5.67
2019-02-11T11:36:11.237Z,9.53
2019-02-11T11:38:40.332Z,4.37
2019-02-11T11:41:09.224Z,6.07
2019-02-11T11:43:38.367Z,7.50
2019-02-11T11:46:07.503Z,6.67
2019-02-11T11:48:36.599Z,5.33
2019-02-11T11:51:05.459Z,5.13
2019-02-11T11:53:34.315Z,6.13
2019-02-11T11:56:03.177Z,3.90
2019-02-11T11:58:32.261Z,4.97
2019-02-11T12:01:01.467Z,5.30
2019-02-11T12:03:30.352Z,3.33
2019-02-11T12:05:59.222Z,6.83
2019-02-11T12:08:28.082Z,3.97
2019-02-11T12:10:57.469Z,5.60
2019-02-11T12:13:26.609Z,5.40
2019-02-11T12:15:55.502Z,6.87
2019-02-11T12:18:24.420Z,4.50
2019-02-11T12:20:53.631Z,5.63
2019-02-11T12:23:22.503Z,5.00
2019-02-11T12:25:51.376Z,6.87
2019-02-11T12:28:20.470Z,4.67
2019-02-11T12:30:53.313Z,10.47
2019-02-11T12:33:20.235Z,6.40
2019-02-11T12:35:49.420Z,11.10
2019-02-11T12:38:18.587Z,8.40
2019-02-11T12:40:47.727Z,10.53
2019-02-11T12:43:16.803Z,12.57
2019-02-11T12:45:45.905Z,13.00
2019-02-11T12:48:15.331Z,9.53
2019-02-11T12:50:44.527Z,11.13
2019-02-11T12:53:13.881Z,10.80
2019-02-11T12:55:43.011Z,16.50
2019-02-11T12:58:12.086Z,10.83
2019-02-11T13:00:41.919Z,10.70
2019-02-11T13:03:11.531Z,10.10
2019-02-11T13:05:45.824Z,16.40
2019-02-11T13:08:11.182Z,11.87
2019-02-11T13:10:40.067Z,13.40
2019-02-11T13:13:09.327Z,10.57
2019-02-11T13:15:58.935Z,12.73
2019-02-11T13:18:09.417Z,10.00
2019-02-11T13:20:38.643Z,11.77
2019-02-11T13:23:07.493Z,10.93
2019-02-11T13:25:37.041Z,8.90
2019-02-11T13:28:06.676Z,9.07
2019-02-11T13:30:35.805Z,9.67
2019-02-11T13:33:04.866Z,8.80
2019-02-11T13:35:33.862Z,13.40
2019-02-11T13:38:03.257Z,11.03
2019-02-11T13:40:32.382Z,12.03
2019-02-11T13:43:01.572Z,9.53
2019-02-11T13:45:30.473Z,15.27
2019-02-11T13:47:59.486Z,11.03
2019-02-11T13:50:29.202Z,9.50
2019-02-11T13:52:58.507Z,9.63
2019-02-11T13:55:30.370Z,15.17
2019-02-11T13:57:58.654Z,12.67
2019-02-11T14:00:36.010Z,11.67
2019-02-11T14:03:06.190Z,8.67
2019-02-11T14:05:35.542Z,9.90
2019-02-11T14:08:05.428Z,9.87
2019-02-11T14:10:34.548Z,12.57
2019-02-11T14:13:04.891Z,12.53
2019-02-11T14:15:34.100Z,11.10
2019-02-11T14:18:13.330Z,12.20
2019-02-11T14:20:37.595Z,15.07
2019-02-11T14:23:07.267Z,12.27
2019-02-11T14:25:43.684Z,14.90
2019-02-11T14:28:07.271Z,11.83
2019-02-11T14:30:37.077Z,11.40
2019-02-11T14:33:06.359Z,11.83
2019-02-11T14:35:35.649Z,11.63
2019-02-11T14:38:04.643Z,9.43
2019-02-11T14:40:34.170Z,11.07
2019-02-11T14:43:04.027Z,10.20
2019-02-11T14:45:33.035Z,13.83
2019-02-11T14:48:01.910Z,14.83
2019-02-11T14:50:31.292Z,10.67
2019-02-11T14:53:00.375Z,13.53
2019-02-11T14:55:29.595Z,12.27
2019-02-11T14:57:59.037Z,9.00
2019-02-11T15:00:27.853Z,10.13
2019-02-11T15:02:56.716Z,8.37
2019-02-11T15:05:26.195Z,10.43
2019-02-11T15:07:55.417Z,11.63
2019-02-11T15:10:24.369Z,17.77
2019-02-11T15:12:53.505Z,11.40
2019-02-11T15:15:22.689Z,11.90
2019-02-11T15:17:51.928Z,10.50
2019-02-11T15:20:21.486Z,11.67
2019-02-11T15:22:50.377Z,14.10
2019-02-11T15:25:19.406Z,12.27
2019-02-11T15:27:49.066Z,11.30
2019-02-11T15:30:19.157Z,10.17
2019-02-11T15:32:48.337Z,11.27
2019-02-11T15:35:17.615Z,13.53
2019-02-11T15:37:46.901Z,11.20
2019-02-11T15:40:18.200Z,12.17
2019-02-11T15:42:47.344Z,12.50
2019-02-11T15:45:16.648Z,12.63
2019-02-11T15:47:46.148Z,16.23
2019-02-11T15:50:15.814Z,12.83
2019-02-11T15:52:45.054Z,11.93
2019-02-11T15:55:18.176Z,12.27
2019-02-11T15:57:47.388Z,14.73
2019-02-11T16:00:18.805Z,10.13
2019-02-11T16:02:48.072Z,8.90
2019-02-11T16:05:17.568Z,15.23
2019-02-11T16:07:47.036Z,10.50
2019-02-11T16:10:18.608Z,10.17
2019-02-11T16:12:47.424Z,17.77
2019-02-11T16:15:16.563Z,8.43
2019-02-11T16:17:45.928Z,10.87
2019-02-11T16:20:15.376Z,8.70
2019-02-11T16:22:46.064Z,14.73
2019-02-11T16:25:14.881Z,14.93
2019-02-11T16:27:43.860Z,8.47
2019-02-11T16:30:15.264Z,7.53
2019-02-11T16:32:46.028Z,15.83
2019-02-11T16:35:15.808Z,10.40
2019-02-11T16:37:45.053Z,9.10
2019-02-11T16:40:22.573Z,12.53
2019-02-11T16:42:51.933Z,10.40
2019-02-11T16:45:21.234Z,11.77
2019-02-11T16:47:50.664Z,12.37
2019-02-11T16:50:19.823Z,9.53
2019-02-11T16:52:48.625Z,8.03
2019-02-11T16:55:18.126Z,10.67
2019-02-11T16:57:47.250Z,9.87
2019-02-11T17:00:17.650Z,9.73
2019-02-11T17:02:46.961Z,7.30
2019-02-11T17:05:16.007Z,5.27
2019-02-11T17:07:45.205Z,6.03
2019-02-11T17:10:14.628Z,7.20
2019-02-11T17:12:43.670Z,8.43
2019-02-11T17:15:14.707Z,7.37
2019-02-11T17:17:44.394Z,7.70
2019-02-11T17:20:14.116Z,5.00
2019-02-11T17:22:43.878Z,8.87
2019-02-11T17:25:13.283Z,4.50
2019-02-11T17:27:42.208Z,3.97
2019-02-11T17:30:17.154Z,7.17
2019-02-11T17:32:46.197Z,4.37
2019-02-11T17:35:15.501Z,6.67
2019-02-11T17:37:44.303Z,8.30
2019-02-11T17:40:14.042Z,4.33
2019-02-11T17:42:43.919Z,12.77
2019-02-11T17:45:15.574Z,4.53
2019-02-11T17:47:44.344Z,8.53
2019-02-11T17:50:13.398Z,5.57
2019-02-11T17:52:42.649Z,7.90
2019-02-11T17:55:12.587Z,7.10
2019-02-11T17:57:41.459Z,6.77
2019-02-11T18:00:23.231Z,11.90
2019-02-11T18:02:52.584Z,7.53
2019-02-11T18:05:21.831Z,8.70
2019-02-11T18:07:50.687Z,9.67
2019-02-11T18:10:20.332Z,9.20
2019-02-11T18:12:49.408Z,12.40
2019-02-11T18:15:18.905Z,8.73
2019-02-11T18:17:48.033Z,7.77
2019-02-11T18:20:17.635Z,7.87
2019-02-11T18:22:47.180Z,11.30
2019-02-11T18:25:16.912Z,9.57
2019-02-11T18:30:21.721Z,15.50
2019-02-11T18:32:50.956Z,8.73
2019-02-11T18:35:19.760Z,8.00
2019-02-11T18:37:49.524Z,8.90
2019-02-11T18:40:19.098Z,11.10
2019-02-11T18:42:48.290Z,9.23
2019-02-11T18:45:17.277Z,10.63
2019-02-11T18:47:46.211Z,12.00
2019-02-11T18:50:15.191Z,7.43
2019-02-11T18:52:44.477Z,11.10
2019-02-11T18:55:14.089Z,13.23
2019-02-11T18:57:43.500Z,10.23
2019-02-11T19:00:14.080Z,15.87
2019-02-11T19:03:27.458Z,15.10
2019-02-11T19:05:56.613Z,12.50
2019-02-11T19:08:25.470Z,13.13
2019-02-11T19:10:54.615Z,12.93
2019-02-11T19:13:23.810Z,13.80
2019-02-11T19:15:52.863Z,15.23
2019-02-11T19:18:21.845Z,21.70
2019-02-11T19:20:50.776Z,9.67
2019-02-11T19:23:19.846Z,11.03
2019-02-11T19:25:49.081Z,10.23
2019-02-11T19:28:18.340Z,17.43
2019-02-11T19:30:47.187Z,13.33
2019-02-11T19:33:16.275Z,13.43
2019-02-11T19:35:45.407Z,11.23
2019-02-11T19:38:14.616Z,10.73
2019-02-11T19:40:45.466Z,17.27
2019-02-11T19:43:15.164Z,9.63
2019-02-11T19:45:44.549Z,13.53
2019-02-11T19:48:13.768Z,16.83
2019-02-11T19:50:52.005Z,14.37
2019-02-11T19:53:21.189Z,15.53
2019-02-11T19:55:50.176Z,11.60
2019-02-11T19:58:19.016Z,16.53
2019-02-11T20:00:48.189Z,13.63
2019-02-11T20:03:17.045Z,12.43
2019-02-11T20:05:46.249Z,12.27
2019-02-11T20:08:15.317Z,13.13
2019-02-11T20:10:44.560Z,15.30
2019-02-11T20:13:13.443Z,11.80
2019-02-11T20:15:42.419Z,14.57
2019-02-11T20:18:11.505Z,11.17
2019-02-11T20:20:40.631Z,13.03
2019-02-11T20:23:09.690Z,16.93
2019-02-11T20:25:39.335Z,11.67
2019-02-11T20:28:08.452Z,9.83
2019-02-11T20:30:37.657Z,16.20
2019-02-11T20:33:06.456Z,16.10
2019-02-11T20:35:35.410Z,13.70
2019-02-11T20:38:04.425Z,13.80
2019-02-11T20:40:33.224Z,11.33
2019-02-11T20:43:02.993Z,20.27
2019-02-11T20:45:31.985Z,13.97
2019-02-11T20:48:01.492Z,24.07
2019-02-11T20:50:30.712Z,15.87
2019-02-11T20:52:59.880Z,15.30
2019-02-11T20:55:29.565Z,19.27
2019-02-11T20:58:09.153Z,15.37
2019-02-11T21:01:00.789Z,14.10
2019-02-11T21:03:34.641Z,14.57
2019-02-11T21:06:15.492Z,13.07
2019-02-11T21:08:44.464Z,12.50
2019-02-11T21:11:21.204Z,15.53
2019-02-11T21:13:50.068Z,16.27
2019-02-11T21:16:19.644Z,12.27
2019-02-11T21:18:48.786Z,15.27
2019-02-11T21:21:17.665Z,15.73
2019-02-11T21:23:47.293Z,10.93
2019-02-11T21:26:16.488Z,13.70
2019-02-11T21:28:45.537Z,13.33
2019-02-11T21:31:14.880Z,18.03
2019-02-11T21:33:44.104Z,13.00
2019-02-11T21:36:14.406Z,16.83
2019-02-11T21:38:43.612Z,22.50
2019-02-11T21:41:12.575Z,15.63
2019-02-11T21:43:41.498Z,16.73
2019-02-11T21:46:10.343Z,12.13
2019-02-11T21:48:39.440Z,12.57
2019-02-11T21:51:08.981Z,14.57
2019-02-11T21:53:38.282Z,20.60
2019-02-11T21:56:07.239Z,14.63
2019-02-11T21:58:36.070Z,14.13
